Time;durP1;ratioP1;P1;durP2;ratioP2;P2;SDS_P1;SDS_P2;PMS_P1;PMS_P2;Temp;Humidity;BMP_temperature;BMP_pressure;BME280_temperature;BME280_humidity;BME280_pressure;Samples;Min_cycle;Max_cycle;Signal;HPM_P1;HPM_P2
2021/12/02 00:00:08;;;;;;;;;;;;;;;3.93;90.26;94879.63;5097034;28;19962;-74
2021/12/02 00:02:37;;;;;;;;;;;;;;;3.90;90.13;94890.41;5097000;28;19957;-74
2021/12/02 00:05:04;;;;;;;;;;;;;;;3.89;90.57;94897.41;5096766;28;19965;-74
2021/12/02 00:07:29;;;;;;;;;;;;;;;3.91;91.05;94903.19;5097419;28;20417;-73
2021/12/02 00:09:55;;;;;;;;;;;;;;;3.92;90.46;94904.75;5096960;28;19996;-73
2021/12/02 00:12:21;;;;;;;;;;;;;;;3.93;90.69;94906.34;5096740;28;20445;-75
2021/12/02 00:14:48;;;;;;;;;;;;;;;3.94;90.60;94904.53;5096754;28;20032;-73
2021/12/02 00:17:19;;;;;;;;;;;;;;;3.92;90.01;94909.94;5096679;28;19994;-75
2021/12/02 00:22:31;;;;;;;;;;;;;;;3.93;90.73;94900.38;5096951;28;19966;-73
2021/12/02 00:25:01;;;;;;;;;;;;;;;3.94;90.62;94910.53;5096649;28;20426;-73
2021/12/02 00:27:29;;;;;;;;;;;;;;;3.95;90.60;94896.56;5096145;28;19959;-74
2021/12/02 00:29:57;;;;;;;;;;;;;;;3.96;90.66;94903.31;5096589;28;19949;-73
2021/12/02 00:32:25;;;;;;;;;;;;;;;3.96;90.41;94898.13;5096676;28;19956;-73
2021/12/02 00:34:51;;;;;;;;;;;;;;;3.96;90.24;94903.31;5096096;28;20324;-73
2021/12/02 00:37:17;;;;;;;;;;;;;;;3.96;90.50;94900.72;5096179;28;19982;-73
2021/12/02 00:39:43;;;;;;;;;;;;;;;3.96;90.26;94905.13;5095977;28;19953;-73
2021/12/02 00:42:09;;;;;;;;;;;;;;;3.94;90.17;94909.72;5095070;28;20396;-75
2021/12/02 00:44:36;;;;;;;;;;;;;;;3.92;90.46;94911.75;5096131;28;19961;-74
2021/12/02 00:47:02;;;;;;;;;;;;;;;3.92;90.66;94911.75;5095122;28;19959;-75
2021/12/02 00:49:29;;;;;;;;;;;;;;;3.90;90.71;94901.56;5077913;28;19954;-73
2021/12/02 00:51:56;;;;;;;;;;;;;;;3.91;90.62;94905.78;5095877;28;19969;-76
2021/12/02 00:54:24;;;;;;;;;;;;;;;3.91;90.47;94903.19;5095476;28;19983;-74
2021/12/02 00:56:50;;;;;;;;;;;;;;;3.91;90.13;94908.38;5095466;28;19954;-75
2021/12/02 00:59:17;;;;;;;;;;;;;;;3.90;90.06;94905.97;5095615;28;19950;-74
2021/12/02 01:01:43;;;;;;;;;;;;;;;3.84;89.58;94911.03;5095855;28;19968;-75
2021/12/02 01:04:10;;;;;;;;;;;;;;;3.79;89.73;94908.25;5095603;28;19959;-75
2021/12/02 01:06:37;;;;;;;;;;;;;;;3.77;89.93;94902.50;5095671;28;20444;-75
2021/12/02 01:09:04;;;;;;;;;;;;;;;3.76;89.98;94908.69;5095531;28;19957;-75
2021/12/02 01:11:30;;;;;;;;;;;;;;;3.74;90.04;94908.13;5095549;28;19962;-75
2021/12/02 01:13:56;;;;;;;;;;;;;;;3.73;90.00;94908.31;5095277;28;19954;-75
2021/12/02 01:16:22;;;;;;;;;;;;;;;3.70;89.43;94912.13;5094668;28;19961;-75
2021/12/02 01:18:48;;;;;;;;;;;;;;;3.65;89.42;94909.38;5095206;28;19972;-75
2021/12/02 01:21:15;;;;;;;;;;;;;;;3.63;89.44;94908.78;5077427;28;20329;-76
2021/12/02 01:23:42;;;;;;;;;;;;;;;3.61;89.44;94903.03;5095469;28;20330;-75
2021/12/02 01:26:08;;;;;;;;;;;;;;;3.60;89.53;94902.25;5095488;28;19949;-74
2021/12/02 01:28:35;;;;;;;;;;;;;;;3.60;89.52;94897.06;5077344;28;19962;-74
2021/12/02 01:31:02;;;;;;;;;;;;;;;3.59;89.59;94900.66;5076954;28;19958;-74
2021/12/02 01:33:28;;;;;;;;;;;;;;;3.58;89.83;94906.84;5076789;28;20063;-74
2021/12/02 01:35:56;;;;;;;;;;;;;;;3.57;89.83;94905.28;5095127;28;19959;-74
2021/12/02 01:38:26;;;;;;;;;;;;;;;3.58;89.62;94913.84;5094768;28;20424;-74
2021/12/02 01:40:53;;;;;;;;;;;;;;;3.57;89.92;94913.03;5095265;28;19958;-74
2021/12/02 01:43:19;;;;;;;;;;;;;;;3.56;89.60;94916.63;5094697;28;19958;-74
2021/12/02 01:45:45;;;;;;;;;;;;;;;3.54;89.71;94916.03;5095206;28;19969;-74
2021/12/02 01:48:16;;;;;;;;;;;;;;;3.54;89.81;94921.22;5094504;28;19956;-73
2021/12/02 01:50:43;;;;;;;;;;;;;;;3.55;90.18;94925.41;5094792;28;19953;-73
2021/12/02 01:53:14;;;;;;;;;;;;;;;3.53;90.07;94918.84;5095091;28;20335;-74
2021/12/02 01:55:42;;;;;;;;;;;;;;;3.52;90.20;94920.66;5094751;28;20004;-74
2021/12/02 01:58:13;;;;;;;;;;;;;;;3.51;90.20;94923.44;5076224;28;19996;-74
2021/12/02 02:00:44;;;;;;;;;;;;;;;3.51;90.51;94926.03;5094663;28;20416;-74
2021/12/02 02:05:51;;;;;;;;;;;;;;;3.43;90.28;94922.69;5456560;22;19989;-83
2021/12/02 02:08:20;;;;;;;;;;;;;;;3.35;90.44;94920.38;5026586;28;19957;-83
2021/12/02 02:10:46;;;;;;;;;;;;;;;3.30;90.70;94922.81;5021229;28;19953;-83
2021/12/02 02:13:12;;;;;;;;;;;;;;;3.27;91.36;94925.00;4994312;28;20008;-83
2021/12/02 02:15:40;;;;;;;;;;;;;;;3.27;91.50;94918.03;5016354;28;19950;-86
2021/12/02 02:18:18;;;;;;;;;;;;;;;3.30;91.57;94924.59;5001091;28;20447;-84
2021/12/02 02:20:49;;;;;;;;;;;;;;;3.28;91.68;94922.22;5008745;28;19961;-84
2021/12/02 02:23:15;;;;;;;;;;;;;;;3.29;91.46;94920.41;5024127;28;19958;-84
2021/12/02 02:25:43;;;;;;;;;;;;;;;3.28;91.49;94932.59;5013764;28;19961;-84
2021/12/02 02:28:09;;;;;;;;;;;;;;;3.28;91.34;94927.41;5003710;28;19952;-85
2021/12/02 02:30:35;;;;;;;;;;;;;;;3.29;91.11;94926.38;5008611;28;19970;-85
2021/12/02 02:33:00;;;;;;;;;;;;;;;3.25;90.78;94918.25;5011826;28;19957;-79
2021/12/02 02:35:26;;;;;;;;;;;;;;;3.24;90.79;94916.66;4996091;28;20016;-79
2021/12/02 02:37:52;;;;;;;;;;;;;;;3.21;90.96;94908.50;5031400;28;20543;-79
2021/12/02 02:40:18;;;;;;;;;;;;;;;3.18;90.83;94909.72;5004323;28;19957;-79
2021/12/02 02:42:48;;;;;;;;;;;;;;;3.18;90.71;94911.53;5024076;28;19950;-82
2021/12/02 02:45:14;;;;;;;;;;;;;;;3.17;90.38;94926.28;5006218;28;19965;-83
2021/12/02 02:47:40;;;;;;;;;;;;;;;3.18;90.72;94927.06;5023589;28;20312;-82
2021/12/02 02:50:10;;;;;;;;;;;;;;;3.17;90.55;94918.50;5023841;28;19945;-79
2021/12/02 02:52:35;;;;;;;;;;;;;;;3.20;90.46;94922.47;5023710;28;19970;-79
2021/12/02 02:55:04;;;;;;;;;;;;;;;3.20;90.53;94918.06;5008479;28;20329;-80
2021/12/02 02:57:38;;;;;;;;;;;;;;;3.21;90.66;94924.84;5007649;28;19959;-82
2021/12/02 03:00:30;;;;;;;;;;;;;;;3.22;90.61;94923.06;5010350;28;19948;-82
2021/12/02 03:03:43;;;;;;;;;;;;;;;3.22;90.63;94928.22;5018560;28;20337;-82
2021/12/02 03:08:32;;;;;;;;;;;;;;;3.23;90.77;94922.84;5020946;28;20328;-79
2021/12/02 03:10:59;;;;;;;;;;;;;;;3.23;90.55;94922.84;5007943;28;20311;-79
2021/12/02 03:13:47;;;;;;;;;;;;;;;3.24;90.36;94926.22;5026696;28;19964;-79
2021/12/02 03:18:57;;;;;;;;;;;;;;;3.21;90.10;94913.69;4996712;28;19979;-79
2021/12/02 03:21:23;;;;;;;;;;;;;;;3.21;89.97;94911.09;4996556;28;20010;-80
2021/12/02 03:23:51;;;;;;;;;;;;;;;3.20;89.83;94918.06;4990120;28;19984;-79
2021/12/02 03:26:17;;;;;;;;;;;;;;;3.18;89.80;94909.72;5008730;28;19955;-80
2021/12/02 03:28:43;;;;;;;;;;;;;;;3.16;89.75;94903.94;5000545;28;19952;-80
2021/12/02 03:31:09;;;;;;;;;;;;;;;3.14;89.41;94913.72;5004905;28;20005;-81
2021/12/02 03:33:35;;;;;;;;;;;;;;;3.11;89.45;94902.97;5015813;28;19970;-80
2021/12/02 03:36:01;;;;;;;;;;;;;;;3.08;89.08;94895.66;5012613;28;19960;-80
2021/12/02 03:38:27;;;;;;;;;;;;;;;3.04;88.92;94908.22;5005368;28;19996;-80
2021/12/02 03:40:53;;;;;;;;;;;;;;;2.99;89.15;94905.47;5010670;28;20428;-80
2021/12/02 03:43:19;;;;;;;;;;;;;;;2.90;89.46;94907.50;4988885;28;19964;-80
2021/12/02 03:45:45;;;;;;;;;;;;;;;2.83;89.72;94897.19;5015310;28;20440;-80
2021/12/02 03:48:11;;;;;;;;;;;;;;;2.78;90.06;94897.00;5006647;28;19959;-80
2021/12/02 03:50:37;;;;;;;;;;;;;;;2.72;90.33;94899.63;5015037;28;19963;-80
2021/12/02 03:53:02;;;;;;;;;;;;;;;2.64;90.72;94904.03;5001555;28;20031;-81
2021/12/02 03:55:28;;;;;;;;;;;;;;;2.64;91.20;94906.63;5010371;28;20045;-83
2021/12/02 03:57:54;;;;;;;;;;;;;;;2.67;91.27;94902.84;4991000;28;19998;-85
2021/12/02 04:00:20;;;;;;;;;;;;;;;2.71;91.33;94911.78;5011304;28;20012;-81
2021/12/02 04:02:46;;;;;;;;;;;;;;;2.70;90.92;94909.41;5002896;28;20463;-81
2021/12/02 04:05:12;;;;;;;;;;;;;;;2.63;91.09;94912.81;4999027;28;19957;-81
2021/12/02 04:07:38;;;;;;;;;;;;;;;2.62;91.16;94903.47;4996132;28;20476;-81
2021/12/02 04:10:04;;;;;;;;;;;;;;;2.61;91.31;94908.84;4988112;28;20317;-81
2021/12/02 04:13:02;;;;;;;;;;;;;;;2.59;91.32;94906.44;4960222;28;19970;-80
2021/12/02 04:15:26;;;;;;;;;;;;;;;2.62;91.78;94906.06;4988920;28;19983;-83
2021/12/02 04:17:52;;;;;;;;;;;;;;;2.67;91.91;94907.19;4987457;28;20353;-83
2021/12/02 04:20:20;;;;;;;;;;;;;;;2.70;91.43;94897.25;4992609;28;19952;-83
2021/12/02 04:22:47;;;;;;;;;;;;;;;2.70;91.44;94912.78;4993589;28;19974;-84
2021/12/02 04:25:13;;;;;;;;;;;;;;;2.70;91.48;94909.41;4987713;28;20419;-83
2021/12/02 04:27:39;;;;;;;;;;;;;;;2.69;91.46;94912.97;4980658;28;19961;-82
2021/12/02 04:30:06;;;;;;;;;;;;;;;2.69;91.35;94903.44;4989638;28;20392;-82
2021/12/02 04:32:35;;;;;;;;;;;;;;;2.69;91.32;94905.19;4990708;28;20390;-82
2021/12/02 04:35:01;;;;;;;;;;;;;;;2.70;91.77;94906.81;4982600;28;20433;-83
2021/12/02 04:37:28;;;;;;;;;;;;;;;2.72;91.76;94902.22;4984134;28;20043;-83
2021/12/02 04:39:57;;;;;;;;;;;;;;;2.74;91.18;94903.59;4950141;28;19970;-85
2021/12/02 04:42:23;;;;;;;;;;;;;;;2.78;91.42;94906.56;4996926;28;19978;-85
2021/12/02 04:44:49;;;;;;;;;;;;;;;2.79;91.18;94902.97;4982573;28;19957;-85
2021/12/02 04:47:16;;;;;;;;;;;;;;;2.82;91.73;94915.50;4981142;28;19957;-85
2021/12/02 04:49:42;;;;;;;;;;;;;;;2.84;91.77;94911.72;4992626;28;19980;-85
2021/12/02 04:52:08;;;;;;;;;;;;;;;2.88;91.74;94909.50;4968943;28;19970;-85
2021/12/02 04:54:34;;;;;;;;;;;;;;;2.90;92.00;94904.91;4995697;28;20449;-86
2021/12/02 04:57:00;;;;;;;;;;;;;;;2.93;91.89;94901.13;4991562;28;19958;-86
2021/12/02 04:59:26;;;;;;;;;;;;;;;2.94;91.86;94903.50;4986524;28;19971;-86
2021/12/02 05:01:52;;;;;;;;;;;;;;;2.95;91.83;94905.06;4980999;28;20424;-86
2021/12/02 05:04:18;;;;;;;;;;;;;;;2.97;91.90;94908.25;5003398;28;19991;-85
2021/12/02 05:06:44;;;;;;;;;;;;;;;2.98;91.90;94903.84;4970632;28;20038;-85
2021/12/02 05:09:10;;;;;;;;;;;;;;;2.98;91.71;94899.50;4968024;28;20412;-86
2021/12/02 05:11:38;;;;;;;;;;;;;;;3.01;91.97;94898.28;5011287;28;19960;-85
2021/12/02 05:14:04;;;;;;;;;;;;;;;3.01;91.96;94891.31;4994214;28;19964;-86
2021/12/02 05:16:30;;;;;;;;;;;;;;;2.99;91.65;94893.31;4984432;28;19982;-82
2021/12/02 05:18:56;;;;;;;;;;;;;;;2.99;91.90;94892.50;4994217;28;19975;-84
2021/12/02 05:21:22;;;;;;;;;;;;;;;2.99;91.85;94889.94;4988171;28;20012;-84
2021/12/02 05:23:53;;;;;;;;;;;;;;;3.00;92.03;94897.50;4971715;28;19956;-83
2021/12/02 05:26:20;;;;;;;;;;;;;;;3.01;92.14;94900.88;5002404;28;19956;-84
2021/12/02 05:28:46;;;;;;;;;;;;;;;3.03;92.12;94894.47;4965724;28;19961;-84
2021/12/02 05:31:12;;;;;;;;;;;;;;;3.04;92.22;94892.66;4983517;28;19972;-87
2021/12/02 05:33:38;;;;;;;;;;;;;;;3.02;92.37;94890.31;4981691;28;20052;-88
2021/12/02 05:36:04;;;;;;;;;;;;;;;3.04;92.39;94901.25;4986816;28;19969;-88
2021/12/02 05:38:30;;;;;;;;;;;;;;;3.05;92.20;94892.47;4978516;28;20007;-88
2021/12/02 05:40:55;;;;;;;;;;;;;;;3.06;91.85;94898.44;4983292;28;19961;-85
2021/12/02 05:43:21;;;;;;;;;;;;;;;3.04;92.31;94901.25;4983608;28;19951;-85
2021/12/02 05:45:47;;;;;;;;;;;;;;;3.05;92.20;94904.63;4983874;28;20009;-86
2021/12/02 05:48:13;;;;;;;;;;;;;;;3.04;92.53;94900.44;4949568;28;20423;-86
2021/12/02 05:50:39;;;;;;;;;;;;;;;3.04;92.53;94913.38;4988790;28;19953;-87
2021/12/02 05:53:06;;;;;;;;;;;;;;;3.04;92.56;94910.78;5006841;28;19967;-86
2021/12/02 05:55:32;;;;;;;;;;;;;;;3.05;92.68;94910.59;4985942;28;19965;-85
2021/12/02 05:57:57;;;;;;;;;;;;;;;3.04;92.43;94911.63;4984243;28;19959;-86
2021/12/02 06:00:23;;;;;;;;;;;;;;;3.05;92.68;94908.00;4990739;28;19958;-86
2021/12/02 06:02:50;;;;;;;;;;;;;;;3.06;92.47;94895.84;4980927;28;20405;-86
2021/12/02 06:05:22;;;;;;;;;;;;;;;3.08;92.38;94890.47;4987349;28;20354;-85
2021/12/02 06:07:52;;;;;;;;;;;;;;;3.09;92.36;94889.44;4980431;28;20439;-84
2021/12/02 06:10:19;;;;;;;;;;;;;;;3.09;92.02;94889.44;4994420;28;20410;-85
2021/12/02 06:12:45;;;;;;;;;;;;;;;3.07;92.31;94883.69;4983716;28;19959;-84
2021/12/02 06:15:11;;;;;;;;;;;;;;;3.04;92.34;94893.50;4967080;28;19955;-85
2021/12/02 06:17:37;;;;;;;;;;;;;;;3.03;92.26;94884.13;4983679;28;19963;-85
2021/12/02 06:20:04;;;;;;;;;;;;;;;3.00;92.57;94886.31;4987331;28;19966;-84
2021/12/02 06:22:32;;;;;;;;;;;;;;;2.99;92.77;94895.91;4987177;28;19971;-84
2021/12/02 06:27:40;;;;;;;;;;;;;;;2.97;91.95;94876.41;4986073;28;19969;-84
2021/12/02 06:30:06;;;;;;;;;;;;;;;2.90;92.34;94878.22;4968031;28;19963;-84
2021/12/02 06:32:32;;;;;;;;;;;;;;;2.84;92.64;94885.81;4975050;28;19964;-82
2021/12/02 06:34:58;;;;;;;;;;;;;;;2.84;92.99;94890.22;4970923;28;19965;-83
2021/12/02 06:37:24;;;;;;;;;;;;;;;2.81;92.70;94896.59;4988948;28;19960;-83
2021/12/02 06:39:50;;;;;;;;;;;;;;;2.79;92.87;94897.78;4987697;28;20339;-83
2021/12/02 06:42:16;;;;;;;;;;;;;;;2.79;92.66;94897.78;4997044;28;19950;-84
2021/12/02 06:44:42;;;;;;;;;;;;;;;2.78;92.75;94884.06;4987857;28;20319;-85
2021/12/02 06:47:09;;;;;;;;;;;;;;;2.80;92.69;94886.44;4966521;28;20427;-82
2021/12/02 06:49:35;;;;;;;;;;;;;;;2.81;92.33;94894.00;4966300;28;19958;-82
2021/12/02 06:52:03;;;;;;;;;;;;;;;2.84;91.74;94885.03;4983003;28;19965;-82
2021/12/02 06:54:29;;;;;;;;;;;;;;;2.80;90.59;94891.63;4983646;28;19967;-81
2021/12/02 06:56:55;;;;;;;;;;;;;;;2.70;90.60;94886.09;4966217;28;20329;-82
2021/12/02 06:59:21;;;;;;;;;;;;;;;2.65;91.50;94876.38;4983837;28;20075;-82
2021/12/02 07:01:47;;;;;;;;;;;;;;;2.60;91.09;94883.94;4970393;28;19978;-82
2021/12/02 07:04:13;;;;;;;;;;;;;;;2.56;91.67;94886.16;4971540;28;19957;-82
2021/12/02 07:06:40;;;;;;;;;;;;;;;2.53;91.97;94886.56;4999077;28;19986;-82
2021/12/02 07:09:06;;;;;;;;;;;;;;;2.49;91.98;94892.38;5021302;28;19962;-82
2021/12/02 07:11:33;;;;;;;;;;;;;;;2.46;92.04;94895.34;5003093;28;19963;-82
2021/12/02 07:14:12;;;;;;;;;;;;;;;2.47;92.47;94892.56;5004813;28;19964;-82
2021/12/02 07:16:38;;;;;;;;;;;;;;;2.56;92.15;94895.72;5017963;28;19965;-82
2021/12/02 07:19:05;;;;;;;;;;;;;;;2.62;91.85;94893.13;4995807;28;20342;-82
2021/12/02 07:21:31;;;;;;;;;;;;;;;2.67;91.26;94889.09;5007516;28;19965;-82
2021/12/02 07:23:57;;;;;;;;;;;;;;;2.68;90.98;94883.72;5023972;28;19966;-83
2021/12/02 07:26:23;;;;;;;;;;;;;;;2.70;90.54;94888.69;5025105;28;19963;-81
2021/12/02 07:28:49;;;;;;;;;;;;;;;2.82;93.42;94887.81;5020415;28;20339;-82
2021/12/02 07:31:16;;;;;;;;;;;;;;;2.90;91.55;94888.56;5027684;28;19960;-82
2021/12/02 07:33:43;;;;;;;;;;;;;;;2.91;90.09;94888.38;5025238;28;19982;-82
2021/12/02 07:36:09;;;;;;;;;;;;;;;2.89;89.98;94890.38;4999798;28;19958;-82
2021/12/02 07:38:38;;;;;;;;;;;;;;;2.87;89.90;94894.19;5009966;28;20328;-82
2021/12/02 07:41:07;;;;;;;;;;;;;;;2.86;89.99;94898.56;4992076;28;19962;-83
2021/12/02 07:43:35;;;;;;;;;;;;;;;2.89;89.91;94897.34;5003053;28;19962;-83
2021/12/02 07:46:01;;;;;;;;;;;;;;;2.90;89.86;94897.16;5019599;28;20315;-83
2021/12/02 07:48:27;;;;;;;;;;;;;;;2.91;89.65;94896.13;5006493;28;20430;-82
2021/12/02 07:50:59;;;;;;;;;;;;;;;2.92;89.63;94899.50;5027552;28;19963;-82
2021/12/02 07:53:26;;;;;;;;;;;;;;;2.93;89.38;94895.94;5022085;28;19967;-83
2021/12/02 07:55:54;;;;;;;;;;;;;;;2.95;89.16;94897.31;5005224;28;19968;-82
2021/12/02 07:58:21;;;;;;;;;;;;;;;2.91;89.07;94905.72;5001143;28;19968;-83
2021/12/02 08:00:46;;;;;;;;;;;;;;;2.87;89.19;94913.09;5028734;28;19962;-82
2021/12/02 08:03:12;;;;;;;;;;;;;;;2.83;89.55;94907.56;5004694;28;19964;-82
2021/12/02 08:05:39;;;;;;;;;;;;;;;2.76;89.53;94909.34;5029441;28;19954;-83
2021/12/02 08:08:05;;;;;;;;;;;;;;;2.71;90.32;94913.56;5017979;28;19988;-82
2021/12/02 08:10:32;;;;;;;;;;;;;;;2.75;95.16;94905.19;5017362;28;20318;-87
2021/12/02 08:13:00;;;;;;;;;;;;;;;3.46;100.00;94908.53;5037539;28;19957;-88
2021/12/02 08:15:26;;;;;;;;;;;;;;;4.29;100.00;94904.00;5004566;28;20425;-87
2021/12/02 08:17:53;;;;;;;;;;;;;;;4.74;95.96;94906.28;5024364;28;19967;-85
2021/12/02 08:20:20;;;;;;;;;;;;;;;4.67;92.98;94903.75;5013886;28;19977;-83
2021/12/02 08:22:46;;;;;;;;;;;;;;;4.62;89.34;94907.03;5028324;28;19964;-84
2021/12/02 08:25:13;;;;;;;;;;;;;;;4.43;86.73;94908.84;4992949;28;19972;-83
2021/12/02 08:27:40;;;;;;;;;;;;;;;4.14;86.02;94918.13;5007323;28;19959;-83
2021/12/02 08:30:07;;;;;;;;;;;;;;;3.80;85.94;94901.28;5011489;28;20316;-82
2021/12/02 08:32:38;;;;;;;;;;;;;;;3.52;87.29;94904.31;5029926;28;19974;-83
2021/12/02 08:35:04;;;;;;;;;;;;;;;3.37;88.09;94913.19;5012875;28;19959;-82
2021/12/02 08:37:36;;;;;;;;;;;;;;;3.44;89.26;94913.94;5036128;28;19957;-84
2021/12/02 08:40:03;;;;;;;;;;;;;;;3.54;89.19;94917.84;5024443;28;19988;-82
2021/12/02 08:42:32;;;;;;;;;;;;;;;3.51;88.16;94923.44;5028168;28;19954;-84
2021/12/02 08:45:01;;;;;;;;;;;;;;;3.50;89.08;94920.06;5035105;28;19971;-84
2021/12/02 08:47:28;;;;;;;;;;;;;;;3.50;89.46;94921.88;5023195;28;19946;-82
2021/12/02 08:49:55;;;;;;;;;;;;;;;3.47;89.03;94924.91;5025450;28;20296;-82
2021/12/02 08:52:21;;;;;;;;;;;;;;;3.44;90.11;94932.09;5030029;28;20402;-82
2021/12/02 08:54:51;;;;;;;;;;;;;;;3.46;90.29;94926.66;5008614;28;19956;-82
2021/12/02 08:57:17;;;;;;;;;;;;;;;3.51;90.60;94926.03;4976593;28;19959;-83
2021/12/02 08:59:44;;;;;;;;;;;;;;;3.50;91.08;94921.88;5026755;28;19973;-82
2021/12/02 09:02:10;;;;;;;;;;;;;;;3.51;90.65;94921.66;5024157;28;19958;-83
2021/12/02 09:04:37;;;;;;;;;;;;;;;3.55;90.82;94930.59;5018283;28;19952;-82
2021/12/02 09:07:03;;;;;;;;;;;;;;;3.52;90.77;94923.22;5035698;28;19982;-83
2021/12/02 09:09:29;;;;;;;;;;;;;;;3.50;91.58;94920.06;5008014;28;19970;-82
2021/12/02 09:11:55;;;;;;;;;;;;;;;3.50;92.14;94919.28;5024441;28;19959;-83
2021/12/02 09:14:21;;;;;;;;;;;;;;;3.50;91.72;94925.25;5030621;28;20415;-83
2021/12/02 09:16:49;;;;;;;;;;;;;;;3.50;91.59;94932.22;5024028;28;20319;-82
2021/12/02 09:19:15;;;;;;;;;;;;;;;3.49;92.19;94928.06;5019986;28;19975;-82
2021/12/02 09:21:41;;;;;;;;;;;;;;;3.48;92.06;94923.88;5011275;28;19958;-82
2021/12/02 09:24:07;;;;;;;;;;;;;;;3.49;92.78;94930.66;5028526;28;19952;-82
2021/12/02 09:26:33;;;;;;;;;;;;;;;3.48;93.02;94929.06;5007760;28;19964;-82
2021/12/02 09:28:59;;;;;;;;;;;;;;;3.51;93.10;94933.81;5020636;28;20329;-83
2021/12/02 09:31:25;;;;;;;;;;;;;;;3.54;93.42;94930.81;5001751;28;20410;-82
2021/12/02 09:33:51;;;;;;;;;;;;;;;3.59;92.92;94934.38;5027054;28;19970;-83
2021/12/02 09:36:18;;;;;;;;;;;;;;;3.74;93.52;94925.44;5007929;28;19968;-83
2021/12/02 09:38:44;;;;;;;;;;;;;;;3.91;92.92;94929.13;5012252;28;19967;-82
2021/12/02 09:41:11;;;;;;;;;;;;;;;4.11;93.23;94941.09;5020429;28;19951;-82
2021/12/02 09:43:37;;;;;;;;;;;;;;;4.18;92.29;94944.41;5030052;28;20062;-82
2021/12/02 09:46:03;;;;;;;;;;;;;;;4.21;92.13;94936.22;5026377;28;19974;-82
2021/12/02 09:48:29;;;;;;;;;;;;;;;4.21;90.93;94928.44;5014836;28;20371;-83
2021/12/02 09:51:04;;;;;;;;;;;;;;;4.19;91.42;94933.81;5024005;28;19958;-83
2021/12/02 09:53:35;;;;;;;;;;;;;;;4.20;91.06;94926.81;4995150;28;19973;-82
2021/12/02 09:56:11;;;;;;;;;;;;;;;4.17;91.72;94935.84;5012640;28;19963;-81
2021/12/02 09:58:37;;;;;;;;;;;;;;;4.14;90.60;94932.91;5027482;28;19955;-83
2021/12/02 10:01:15;;;;;;;;;;;;;;;4.06;90.83;94926.97;5027774;28;20327;-83
2021/12/02 10:03:44;;;;;;;;;;;;;;;4.00;91.37;94930.41;5019780;28;19954;-82
2021/12/02 10:06:14;;;;;;;;;;;;;;;3.97;91.50;94925.66;5013483;28;20319;-83
2021/12/02 10:09:07;;;;;;;;;;;;;;;3.97;91.92;94922.25;5017633;28;19962;-82
2021/12/02 10:11:47;;;;;;;;;;;;;;;3.96;92.07;94931.84;5001739;28;19963;-82
2021/12/02 10:14:13;;;;;;;;;;;;;;;3.96;92.08;94926.66;5027375;28;19961;-83
2021/12/02 10:16:43;;;;;;;;;;;;;;;3.97;92.40;94925.66;5013103;28;19944;-83
2021/12/02 10:19:16;;;;;;;;;;;;;;;3.97;91.80;94927.44;5007003;28;19974;-83
2021/12/02 10:21:51;;;;;;;;;;;;;;;3.91;91.00;94926.53;5026206;28;20036;-83
2021/12/02 10:24:23;;;;;;;;;;;;;;;3.86;90.94;94932.34;5003226;28;19954;-82
2021/12/02 10:26:51;;;;;;;;;;;;;;;3.82;91.11;94941.56;5022360;28;20300;-82
2021/12/02 10:29:19;;;;;;;;;;;;;;;3.77;90.72;94936.19;5021796;28;19961;-82
2021/12/02 10:31:48;;;;;;;;;;;;;;;3.65;89.93;94935.28;5033116;28;19964;-83
2021/12/02 10:34:16;;;;;;;;;;;;;;;3.56;89.41;94941.75;5019991;28;19967;-82
2021/12/02 10:36:45;;;;;;;;;;;;;;;3.48;90.07;94935.03;5021976;28;19961;-82
2021/12/02 10:39:19;;;;;;;;;;;;;;;3.39;89.20;94934.50;5028916;28;20414;-82
2021/12/02 10:41:46;;;;;;;;;;;;;;;3.35;89.35;94930.72;5024066;28;19956;-82
2021/12/02 10:44:29;;;;;;;;;;;;;;;3.37;90.12;94928.72;5027601;28;19962;-83
2021/12/02 10:46:57;;;;;;;;;;;;;;;3.39;90.25;94929.31;5007159;28;19961;-83
2021/12/02 10:49:24;;;;;;;;;;;;;;;3.43;89.26;94932.28;5013177;28;19962;-82
2021/12/02 10:51:52;;;;;;;;;;;;;;;3.36;89.00;94931.50;5002286;28;19967;-81
2021/12/02 10:54:23;;;;;;;;;;;;;;;3.27;89.70;94930.19;5024679;28;19963;-82
2021/12/02 10:56:54;;;;;;;;;;;;;;;3.24;90.35;94929.59;5013746;28;19952;-82
2021/12/02 10:59:28;;;;;;;;;;;;;;;3.28;90.76;94921.44;5010803;28;19964;-82
2021/12/02 11:02:05;;;;;;;;;;;;;;;3.31;90.77;94932.16;5024374;28;19960;-84
2021/12/02 11:04:35;;;;;;;;;;;;;;;3.37;90.99;94923.53;5007678;28;19954;-84
2021/12/02 11:07:02;;;;;;;;;;;;;;;3.41;90.82;94923.94;5027686;28;19985;-81
2021/12/02 11:09:32;;;;;;;;;;;;;;;3.40;89.47;94928.31;4993764;28;20037;-81
2021/12/02 11:12:06;;;;;;;;;;;;;;;3.38;89.90;94927.72;5004221;28;20423;-81
2021/12/02 11:14:32;;;;;;;;;;;;;;;3.37;90.22;94926.13;5021821;28;19952;-81
2021/12/02 11:17:08;;;;;;;;;;;;;;;3.33;90.11;94921.59;5009057;28;19971;-82
2021/12/02 11:19:34;;;;;;;;;;;;;;;3.27;89.55;94925.00;5017779;28;19980;-81
2021/12/02 11:22:05;;;;;;;;;;;;;;;3.23;90.22;94925.44;5012637;28;19954;-82
2021/12/02 11:24:34;;;;;;;;;;;;;;;3.17;89.56;94925.47;5015315;28;19966;-82
2021/12/02 11:27:23;;;;;;;;;;;;;;;3.11;90.29;94928.88;5027767;28;19969;-81
2021/12/02 11:29:49;;;;;;;;;;;;;;;3.10;90.62;94919.53;5002183;28;19969;-81
2021/12/02 11:32:27;;;;;;;;;;;;;;;3.01;89.94;94922.38;4999313;28;19952;-81
2021/12/02 11:35:09;;;;;;;;;;;;;;;2.91;90.07;94918.66;5028747;28;19956;-81
2021/12/02 11:37:37;;;;;;;;;;;;;;;2.81;90.30;94916.50;5023650;28;19970;-81
2021/12/02 11:40:08;;;;;;;;;;;;;;;2.84;91.22;94913.50;5013069;28;19979;-81
2021/12/02 11:42:36;;;;;;;;;;;;;;;2.84;91.17;94913.50;5029632;28;19958;-81
2021/12/02 11:45:03;;;;;;;;;;;;;;;2.89;91.23;94924.03;5003937;28;19964;-81
2021/12/02 11:47:29;;;;;;;;;;;;;;;2.92;90.80;94921.03;4993725;28;20287;-81
2021/12/02 11:49:55;;;;;;;;;;;;;;;2.95;91.33;94925.00;5009875;28;19974;-81
2021/12/02 11:52:21;;;;;;;;;;;;;;;2.94;90.08;94920.81;5000019;28;19969;-81
2021/12/02 11:54:47;;;;;;;;;;;;;;;2.91;91.26;94927.19;5007852;28;19960;-81
2021/12/02 11:57:13;;;;;;;;;;;;;;;2.93;91.22;94925.19;4982326;28;19961;-81
2021/12/02 11:59:39;;;;;;;;;;;;;;;2.97;90.91;94936.72;5022601;28;19978;-81
2021/12/02 12:02:06;;;;;;;;;;;;;;;2.99;90.69;94937.31;5006642;28;19962;-82
2021/12/02 12:04:35;;;;;;;;;;;;;;;3.00;90.28;94928.56;5021622;28;19968;-81
2021/12/02 12:07:14;;;;;;;;;;;;;;;3.02;90.90;94926.56;5026281;28;19987;-81
2021/12/02 12:09:40;;;;;;;;;;;;;;;3.02;89.57;94929.16;5020414;28;20311;-81
2021/12/02 12:12:06;;;;;;;;;;;;;;;3.00;89.52;94931.16;5005495;28;19962;-81
2021/12/02 12:14:37;;;;;;;;;;;;;;;2.96;89.73;94936.94;5028337;28;20414;-81
2021/12/02 12:17:04;;;;;;;;;;;;;;;2.89;89.03;94931.00;5014956;28;19951;-81
2021/12/02 12:19:32;;;;;;;;;;;;;;;2.77;89.55;94928.25;5018231;28;19970;-80
2021/12/02 12:22:03;;;;;;;;;;;;;;;2.65;90.51;94933.31;5032146;28;19953;-80
2021/12/02 12:24:38;;;;;;;;;;;;;;;2.60;90.79;94936.50;5027700;28;19955;-79
2021/12/02 12:27:11;;;;;;;;;;;;;;;2.57;91.21;94942.09;5029218;28;19954;-80
2021/12/02 12:29:37;;;;;;;;;;;;;;;2.57;90.55;94942.09;5010036;28;19952;-80
2021/12/02 12:32:06;;;;;;;;;;;;;;;2.57;90.41;94943.88;5007300;28;20012;-80
2021/12/02 12:34:42;;;;;;;;;;;;;;;2.54;89.88;94946.88;5003694;28;19957;-80
2021/12/02 12:37:11;;;;;;;;;;;;;;;2.56;89.95;94947.47;5023766;28;19957;-80
2021/12/02 12:39:40;;;;;;;;;;;;;;;2.58;90.54;94950.63;5024436;28;19975;-80
2021/12/02 12:42:11;;;;;;;;;;;;;;;2.64;91.31;94960.97;5026167;28;19966;-79
2021/12/02 12:44:47;;;;;;;;;;;;;;;2.71;91.28;94948.03;5026655;28;20028;-80
2021/12/02 12:47:13;;;;;;;;;;;;;;;2.77;90.63;94943.78;5009450;28;19956;-80
2021/12/02 12:49:39;;;;;;;;;;;;;;;2.75;89.30;94938.03;5021854;28;20327;-80
2021/12/02 12:52:15;;;;;;;;;;;;;;;2.68;88.36;94953.59;4997333;28;19957;-80
2021/12/02 12:54:42;;;;;;;;;;;;;;;2.57;88.46;94951.66;5029775;28;19963;-80
2021/12/02 12:57:08;;;;;;;;;;;;;;;2.49;88.60;94939.72;5028108;28;19954;-82
2021/12/02 12:59:48;;;;;;;;;;;;;;;2.44;89.60;94953.28;5012093;28;19975;-81
2021/12/02 13:02:15;;;;;;;;;;;;;;;2.42;89.14;94944.13;5027320;28;19955;-81
2021/12/02 13:04:52;;;;;;;;;;;;;;;2.43;89.14;94949.09;5023722;28;20451;-81
2021/12/02 13:07:19;;;;;;;;;;;;;;;2.49;90.00;94951.88;5003854;28;19981;-81
2021/12/02 13:10:00;;;;;;;;;;;;;;;2.57;90.01;94947.25;5035133;28;19978;-81
2021/12/02 13:12:47;;;;;;;;;;;;;;;2.67;90.85;94941.66;5027258;28;20322;-82
2021/12/02 13:15:21;;;;;;;;;;;;;;;2.77;90.12;94947.19;5003151;28;19956;-80